Lantana, FL

11:51 AM EDT on September 23, 2014 (GMT -0400)
Island Estates | Change Station
CLOSE
Current Station
Personal Weather Station
Location: Lantana, FL
Elevation: 45 ft
Nearby Weather Stations

Elev 45 ft 26.57 °N, 80.08 °W | Updated 59 seconds ago

Overcast
Overcast
79.6 °F
Feels Like 84 °F
N
4.0
Wind Variable Wind from South
Gusts 5.0 mph

Today
High -- | Low -- °F
--% Chance of Precip.
Yesterday
High -- | Low -- °F
Precip. -- in
7:09 AM 7:15 PM
Waning Crescent, 0% visible
Pressure 30.03 in
Visibility 8.0 miles
Clouds Scattered Clouds 1800 ft
Mostly Cloudy 2900 ft
Mostly Cloudy 3600 ft
Heat Index 84 °F
Dew Point 74 °F
Humidity 82%
Rainfall 0.00 in
Snow Depth Not available.
UV 5 out of 12
Pollen 2.60 out of 12
PM2.5 Good
Flu Activity Not available.
SPECI KPBI 231508Z 17009KT 8SM -RA SCT018 BKN029CB BKN036 24/23 A3003 RMK AO2 TSE07 CB OHD-NW-E-S MOV N P0001 T02440228 $

More Conditions Fewer Conditions

Pressure 30.03 in
Visibility 8.0 miles
Clouds Scattered Clouds 1800 ft
Mostly Cloudy 2900 ft
Mostly Cloudy 3600 ft
Heat Index 84 °F
Dew Point 74 °F
Humidity 82%
Rainfall 0.00 in
Snow Depth Not available.
UV 5 out of 12
Pollen 2.60 out of 12
PM2.5 Good
Flu Activity Not available.
SPECI KPBI 231508Z 17009KT 8SM -RA SCT018 BKN029CB BKN036 24/23 A3003 RMK AO2 TSE07 CB OHD-NW-E-S MOV N P0001 T02440228 $

More Conditions Fewer Conditions

Nowcast | as of 10:04 am EDT on September 23, 2014

Showers and isolated thunderstorms will continue to lift northward across the Atlantic waters and portions of the Atlantic Metro areas. Currently most of the coverage is across southern Palm Beach County and adjacent waters. These showers will move generally northward about 10 knots and produce brief and at times heavy downpours and gusty winds to near 25 knots with the heavier showers. Occasional lightning strikes will occur with this activity.

×

10-Day Weather Forecast

Almanac

Astronomy

Sep. 23, 2014 Rise Set
Actual Time 7:09 AM EDT 7:15 PM EDT
Civil Twilight 6:46 AM EDT 7:38 PM EDT
Nautical Twilight 6:19 AM EDT 8:05 PM EDT
Astronomical Twilight 5:52 AM EDT 8:32 PM EDT
Moon 6:33 AM EDT 6:54 PM EDT
Length of Visible Light 12h 52m
Length of Day
12h 06m
Tomorrow will be 1m 33s shorter.
Waning Crescent, 0% of the Moon is Illuminated
Today
Waning Crescent
Sep 24
New
Oct 1
First Quarter
Oct 8
Full
Oct 15
Last Quarter

Today's Extremes

State Highs State Lows

Community

WunderPhotos

Upload Photos

1,755,727 photos uploaded!

WunderBlogs® & News

Nearby

Air Quality

  Air Quality AQ Index Pollutant
Yesterday Good
PM2.5
Yesterday Good
OZONE
Current Good
PM2.5
Tuesday Good
OZONE
Tuesday Good
PM2.5

Snow Depth

Station Depth Elevation
No new snow has been reported.

Earthquake Activity

City Distance Mag. Time & Date
No recent earthquake activity has been reported nearby.
Minimum magnitude displayed is 2.5.

Coastal Water Temperatures

Place Temperature
Lake Worth, FL 84.0 °F
Virginia Key, FL 84.0 °F

Nearby Weather Stations